createdAt,value
2022-08-09T00:00:04.442Z,55.80
2022-08-09T00:02:34.061Z,55.40
2022-08-09T00:06:16.207Z,55.10
2022-08-09T00:07:49.186Z,55.20
2022-08-09T00:10:18.195Z,55.40
2022-08-09T00:12:52.376Z,55.10
2022-08-09T00:15:35.633Z,55.30
2022-08-09T00:18:12.148Z,55.70
2022-08-09T00:20:48.166Z,55.80
2022-08-09T00:23:55.723Z,56.10
2022-08-09T00:26:05.239Z,56.40
2022-08-09T00:28:34.633Z,56.30
2022-08-09T00:31:09.349Z,56.50
2022-08-09T00:33:52.000Z,56.80
2022-08-09T00:36:20.252Z,56.80
2022-08-09T00:38:50.645Z,57.40
2022-08-09T00:44:08.072Z,57.50
2022-08-09T00:44:16.637Z,57.60
2022-08-09T00:46:57.658Z,58.00
2022-08-09T00:49:36.945Z,57.90
2022-08-09T00:52:17.718Z,57.80
2022-08-09T00:54:45.670Z,58.10
2022-08-09T00:57:13.723Z,58.30
2022-08-09T00:59:52.525Z,58.50
2022-08-09T01:02:22.046Z,58.50
2022-08-09T01:05:00.959Z,58.50
2022-08-09T01:08:00.026Z,58.50
2022-08-09T01:10:58.320Z,58.50
2022-08-09T01:13:41.773Z,58.60
2022-08-09T01:16:22.140Z,58.30
2022-08-09T01:19:02.640Z,59.50
2022-08-09T01:21:41.105Z,59.10
2022-08-09T01:24:34.006Z,59.00
2022-08-09T01:27:12.689Z,59.40
2022-08-09T01:29:40.976Z,59.90
2022-08-09T01:32:29.925Z,59.50
2022-08-09T01:35:18.077Z,60.20
2022-08-09T01:38:08.508Z,61.10
2022-08-09T01:40:43.946Z,60.00
2022-08-09T01:43:11.851Z,59.70
2022-08-09T01:45:46.365Z,59.90
2022-08-09T01:48:19.974Z,60.10
2022-08-09T01:50:58.266Z,60.60
2022-08-09T01:53:29.302Z,61.60
2022-08-09T01:56:09.971Z,61.40
2022-08-09T01:58:38.831Z,61.70
2022-08-09T02:01:07.913Z,61.50
2022-08-09T02:03:37.114Z,61.60
2022-08-09T02:06:07.036Z,61.40
2022-08-09T02:08:57.087Z,62.50
2022-08-09T02:11:41.903Z,63.60
2022-08-09T02:14:15.858Z,63.40
2022-08-09T02:17:14.792Z,62.50
2022-08-09T02:19:43.444Z,62.20
2022-08-09T02:22:46.450Z,62.90
2022-08-09T02:25:20.481Z,62.70
2022-08-09T02:28:00.150Z,62.50
2022-08-09T02:30:34.855Z,62.60
2022-08-09T02:33:03.102Z,62.50
2022-08-09T02:36:01.457Z,63.10
2022-08-09T02:38:31.641Z,63.20
2022-08-09T02:41:24.409Z,62.90
2022-08-09T02:43:55.018Z,62.70
2022-08-09T02:46:27.477Z,63.10
2022-08-09T02:48:58.359Z,63.40
2022-08-09T02:51:27.954Z,64.00
2022-08-09T02:54:06.281Z,65.60
2022-08-09T02:56:36.478Z,64.90
2022-08-09T02:59:05.657Z,63.90
2022-08-09T03:01:43.258Z,63.80
2022-08-09T03:04:26.394Z,63.90
2022-08-09T03:06:59.821Z,64.20
2022-08-09T03:09:42.792Z,64.10
2022-08-09T03:12:13.513Z,64.10
2022-08-09T03:14:42.319Z,64.70
2022-08-09T03:17:20.550Z,65.50
2022-08-09T03:20:00.482Z,65.20
2022-08-09T03:22:32.641Z,65.90
2022-08-09T03:25:21.862Z,65.60
2022-08-09T03:27:52.644Z,65.70
2022-08-09T03:30:29.961Z,65.80
2022-08-09T03:33:12.775Z,65.50
2022-08-09T03:36:11.718Z,65.50
2022-08-09T03:38:30.684Z,65.70
2022-08-09T03:40:58.152Z,65.60
2022-08-09T03:43:31.854Z,65.90
2022-08-09T03:46:03.981Z,66.30
2022-08-09T03:48:52.786Z,65.90
2022-08-09T03:51:55.063Z,65.70
2022-08-09T03:54:14.708Z,65.80
2022-08-09T03:56:44.795Z,66.00
2022-08-09T03:59:21.178Z,66.00
2022-08-09T04:01:56.833Z,66.10
2022-08-09T04:04:36.139Z,66.40
2022-08-09T04:07:06.159Z,66.20
2022-08-09T04:09:47.488Z,66.60
2022-08-09T04:12:30.871Z,66.60
2022-08-09T04:15:01.709Z,66.60
2022-08-09T04:17:39.572Z,66.60
2022-08-09T04:20:11.262Z,66.10
2022-08-09T04:22:41.116Z,66.00
2022-08-09T04:25:11.065Z,66.20
2022-08-09T04:27:41.502Z,66.10
2022-08-09T04:30:13.980Z,66.10
2022-08-09T04:32:41.945Z,65.80
2022-08-09T04:35:13.812Z,65.70
2022-08-09T04:37:45.976Z,65.70
2022-08-09T04:40:28.825Z,65.40
2022-08-09T04:43:01.454Z,65.50
2022-08-09T04:45:30.439Z,65.80
2022-08-09T04:48:03.102Z,65.80
2022-08-09T04:50:37.817Z,66.00
2022-08-09T04:53:12.973Z,66.00
2022-08-09T04:55:57.885Z,66.30
2022-08-09T04:58:27.168Z,66.50
2022-08-09T05:00:55.269Z,66.30
2022-08-09T05:03:40.209Z,66.20
2022-08-09T05:06:26.775Z,66.00
2022-08-09T05:09:00.893Z,66.30
2022-08-09T05:11:30.350Z,66.40
2022-08-09T05:13:59.035Z,66.40
2022-08-09T05:16:28.523Z,66.20
2022-08-09T05:19:00.132Z,66.50
2022-08-09T05:21:30.060Z,66.10
2022-08-09T05:24:01.298Z,66.20
2022-08-09T05:26:45.775Z,66.00
2022-08-09T05:29:31.422Z,65.70
2022-08-09T05:32:00.548Z,65.70
2022-08-09T05:34:32.553Z,66.10
2022-08-09T05:37:06.804Z,65.10
2022-08-09T05:39:43.367Z,65.00
2022-08-09T05:42:17.527Z,64.70
2022-08-09T05:44:50.938Z,64.50
2022-08-09T05:47:19.309Z,64.60
2022-08-09T05:50:26.049Z,64.60
2022-08-09T05:52:36.043Z,64.30
2022-08-09T05:55:07.284Z,64.40
2022-08-09T05:57:50.705Z,63.90
2022-08-09T06:00:23.783Z,63.80
2022-08-09T06:02:54.168Z,63.80
2022-08-09T06:05:30.902Z,63.60
2022-08-09T06:08:09.203Z,63.80
2022-08-09T06:10:38.286Z,63.40
2022-08-09T06:13:18.672Z,63.30
2022-08-09T06:15:51.315Z,62.90
2022-08-09T06:18:24.059Z,62.50
2022-08-09T06:20:57.432Z,62.40
2022-08-09T06:23:55.296Z,62.40
2022-08-09T06:26:15.134Z,62.20
2022-08-09T06:29:00.565Z,61.80
2022-08-09T06:31:40.073Z,61.30
2022-08-09T06:34:17.648Z,61.20
2022-08-09T06:36:45.077Z,62.00
2022-08-09T06:39:12.589Z,60.60
2022-08-09T06:42:08.245Z,60.10
2022-08-09T06:44:26.975Z,60.30
2022-08-09T06:46:54.989Z,60.40
2022-08-09T06:49:29.096Z,59.60
2022-08-09T06:52:09.765Z,59.70
2022-08-09T06:54:38.870Z,59.40
2022-08-09T06:57:08.455Z,58.50
2022-08-09T07:00:50.171Z,58.60
2022-08-09T07:02:22.161Z,58.10
2022-08-09T07:04:56.498Z,58.20
2022-08-09T07:08:00.117Z,57.80
2022-08-09T07:10:22.227Z,57.60
2022-08-09T07:12:57.248Z,57.10
2022-08-09T07:16:39.414Z,57.30
2022-08-09T07:18:14.289Z,57.00
2022-08-09T07:20:43.349Z,56.60
2022-08-09T07:23:19.170Z,56.50
2022-08-09T07:25:52.258Z,56.10
2022-08-09T07:28:28.983Z,55.90
2022-08-09T07:30:56.007Z,55.50
2022-08-09T07:33:23.302Z,55.40
2022-08-09T07:35:54.321Z,55.20
2022-08-09T07:38:21.698Z,55.10
2022-08-09T07:41:00.962Z,55.00
2022-08-09T07:43:41.300Z,54.80
2022-08-09T07:46:22.498Z,54.10
2022-08-09T07:48:59.291Z,54.60
2022-08-09T07:52:04.683Z,54.50
2022-08-09T07:54:15.060Z,53.20
2022-08-09T07:56:48.826Z,52.60
2022-08-09T07:59:25.236Z,53.40
2022-08-09T08:02:00.883Z,52.70
2022-08-09T08:04:32.321Z,51.90
2022-08-09T08:07:15.417Z,52.40
2022-08-09T08:09:53.542Z,50.90
2022-08-09T08:12:34.524Z,52.20
2022-08-09T08:15:01.513Z,50.40
2022-08-09T08:17:51.875Z,50.60
2022-08-09T08:20:15.477Z,50.60
2022-08-09T08:22:42.971Z,49.50
2022-08-09T08:25:13.839Z,49.80
2022-08-09T08:27:43.061Z,49.60
2022-08-09T08:30:11.711Z,47.90
2022-08-09T08:32:52.837Z,47.90
2022-08-09T08:35:22.571Z,45.90
2022-08-09T08:37:59.425Z,45.20
2022-08-09T08:40:27.013Z,44.80
2022-08-09T08:42:58.733Z,44.30
2022-08-09T08:45:53.278Z,46.00
2022-08-09T08:48:22.277Z,45.20
2022-08-09T08:50:56.502Z,43.60
2022-08-09T08:53:23.673Z,44.70
2022-08-09T08:55:59.167Z,45.10
2022-08-09T08:58:29.879Z,45.10
2022-08-09T09:00:58.174Z,44.30
2022-08-09T09:03:37.111Z,43.90
2022-08-09T09:06:05.701Z,44.30
2022-08-09T09:08:38.050Z,44.20
2022-08-09T09:11:08.915Z,44.00
2022-08-09T09:13:56.198Z,43.80
2022-08-09T09:16:34.091Z,43.80
2022-08-09T09:19:36.758Z,44.10
2022-08-09T09:22:07.682Z,43.60
2022-08-09T09:24:43.598Z,43.30
2022-08-09T09:28:04.331Z,43.30
2022-08-09T09:30:20.132Z,43.40
2022-08-09T09:33:13.949Z,43.10
2022-08-09T09:36:01.508Z,42.60
2022-08-09T09:38:43.851Z,42.90
2022-08-09T09:41:48.825Z,43.00
2022-08-09T09:44:31.591Z,42.10
2022-08-09T09:47:10.612Z,42.20
2022-08-09T09:50:07.795Z,41.70
2022-08-09T09:52:37.196Z,43.00
2022-08-09T09:55:27.632Z,42.50
2022-08-09T09:58:17.159Z,42.40
2022-08-09T10:00:52.737Z,41.60
2022-08-09T10:03:57.960Z,41.60
2022-08-09T10:06:42.689Z,41.60
2022-08-09T10:09:22.593Z,42.10
2022-08-09T10:12:14.423Z,42.10
2022-08-09T10:14:50.077Z,42.50
2022-08-09T10:17:50.829Z,42.40
2022-08-09T10:20:27.316Z,41.80
2022-08-09T10:23:12.267Z,42.00
2022-08-09T10:26:07.541Z,42.10
2022-08-09T10:28:33.067Z,42.00
2022-08-09T10:34:09.545Z,42.00
2022-08-09T10:36:35.451Z,42.20
2022-08-09T10:39:02.504Z,42.50
2022-08-09T10:41:29.265Z,42.20
2022-08-09T10:44:02.030Z,42.10
2022-08-09T10:46:54.604Z,42.00
2022-08-09T10:49:50.542Z,42.20
2022-08-09T10:52:56.289Z,42.50
2022-08-09T10:55:55.755Z,42.00
2022-08-09T10:58:33.521Z,42.80
2022-08-09T11:03:11.028Z,42.10
2022-08-09T11:04:07.121Z,42.60
2022-08-09T11:07:09.631Z,42.40
2022-08-09T11:09:41.119Z,41.60
2022-08-09T11:12:18.141Z,41.70
2022-08-09T11:14:58.154Z,41.70
2022-08-09T11:17:25.105Z,41.30
2022-08-09T11:20:11.312Z,41.40
2022-08-09T11:22:47.230Z,41.20
2022-08-09T11:25:47.577Z,41.40
2022-08-09T11:28:34.426Z,41.90
2022-08-09T11:31:43.461Z,41.80
2022-08-09T11:34:27.308Z,41.80
2022-08-09T11:36:56.779Z,41.80
2022-08-09T11:39:24.776Z,42.30
2022-08-09T11:41:54.630Z,41.70
2022-08-09T11:44:44.181Z,43.70
2022-08-09T11:47:14.373Z,42.60
2022-08-09T11:50:55.103Z,41.50
2022-08-09T11:53:58.533Z,41.70
2022-08-09T11:55:51.929Z,42.30
2022-08-09T11:58:32.259Z,42.20
2022-08-09T12:01:15.552Z,41.20
2022-08-09T12:04:00.645Z,41.10
2022-08-09T12:06:32.037Z,41.20
2022-08-09T12:09:01.338Z,41.20
2022-08-09T12:11:28.997Z,41.50
2022-08-09T12:14:08.269Z,41.10
2022-08-09T12:16:41.373Z,41.00
2022-08-09T12:19:12.969Z,41.50
2022-08-09T12:21:48.379Z,41.70
2022-08-09T12:24:25.754Z,40.50
2022-08-09T12:29:14.325Z,40.50
2022-08-09T12:30:03.641Z,40.20
2022-08-09T12:32:42.726Z,40.70
2022-08-09T12:35:13.210Z,40.60
2022-08-09T12:37:50.010Z,41.20
2022-08-09T12:40:23.295Z,41.10
2022-08-09T12:42:52.190Z,41.60
2022-08-09T12:45:34.534Z,41.60
2022-08-09T12:48:07.864Z,41.00
2022-08-09T12:50:38.897Z,41.30
2022-08-09T12:53:32.173Z,41.70
2022-08-09T12:56:15.560Z,41.70
2022-08-09T12:59:10.980Z,41.40
2022-08-09T13:01:46.864Z,41.30
2022-08-09T13:04:36.557Z,41.40
2022-08-09T13:07:16.808Z,41.00
2022-08-09T13:09:55.845Z,41.00
2022-08-09T13:12:27.920Z,41.30
2022-08-09T13:15:12.101Z,41.70
2022-08-09T13:18:05.154Z,41.50
2022-08-09T13:20:50.261Z,41.50
2022-08-09T13:24:16.226Z,41.70
2022-08-09T13:26:49.681Z,40.80
2022-08-09T13:29:20.674Z,41.30
2022-08-09T13:32:15.826Z,40.50
2022-08-09T13:34:46.704Z,41.20
2022-08-09T13:37:51.445Z,41.10
2022-08-09T13:41:46.556Z,41.60
2022-08-09T13:42:50.448Z,41.10
2022-08-09T13:45:17.804Z,41.40
2022-08-09T13:47:51.822Z,41.50
2022-08-09T13:50:30.537Z,41.60
2022-08-09T13:52:58.348Z,41.20
2022-08-09T13:55:29.089Z,41.80
2022-08-09T13:57:58.499Z,41.20
2022-08-09T14:00:29.331Z,40.90
2022-08-09T14:03:03.487Z,40.60
2022-08-09T14:05:57.444Z,41.20
2022-08-09T14:08:29.807Z,41.40
2022-08-09T14:10:57.378Z,41.10
2022-08-09T14:14:15.918Z,41.30
2022-08-09T14:16:16.871Z,41.00
2022-08-09T14:18:49.560Z,41.20
2022-08-09T14:21:23.084Z,40.80
2022-08-09T14:23:56.591Z,40.50
2022-08-09T14:26:32.143Z,40.50
2022-08-09T14:29:00.807Z,40.50
2022-08-09T14:31:49.761Z,40.60
2022-08-09T14:34:17.735Z,41.20
2022-08-09T14:36:59.102Z,40.90
2022-08-09T14:39:39.881Z,40.80
2022-08-09T14:42:12.767Z,40.30
2022-08-09T14:45:00.150Z,40.50
2022-08-09T14:47:45.493Z,40.30
2022-08-09T14:50:16.170Z,40.60
2022-08-09T14:52:43.349Z,40.60
2022-08-09T14:55:14.738Z,40.60
2022-08-09T14:57:47.586Z,40.50
2022-08-09T15:00:16.069Z,41.10
2022-08-09T15:02:42.840Z,41.40
2022-08-09T15:05:17.008Z,41.50
2022-08-09T15:07:45.556Z,40.70
2022-08-09T15:10:24.920Z,40.70
2022-08-09T15:12:53.657Z,40.70
2022-08-09T15:15:21.058Z,40.40
2022-08-09T15:17:52.291Z,40.20
2022-08-09T15:21:55.401Z,39.30
2022-08-09T15:24:03.038Z,39.60
2022-08-09T15:25:55.651Z,40.10
2022-08-09T15:28:27.968Z,40.30
2022-08-09T15:31:08.793Z,40.80
2022-08-09T15:34:18.033Z,40.20
2022-08-09T15:36:29.423Z,41.00
2022-08-09T15:39:00.859Z,40.50
2022-08-09T15:41:31.187Z,40.00
2022-08-09T15:44:02.548Z,40.40
2022-08-09T15:46:33.084Z,40.60
2022-08-09T15:49:22.014Z,40.60
2022-08-09T15:52:05.078Z,40.50
2022-08-09T15:54:49.069Z,40.60
2022-08-09T15:57:18.726Z,40.80
2022-08-09T15:59:51.816Z,40.90
2022-08-09T16:02:19.354Z,41.00
2022-08-09T16:04:54.134Z,41.40
2022-08-09T16:07:20.892Z,41.20
2022-08-09T16:09:57.661Z,40.70
2022-08-09T16:12:31.030Z,40.70
2022-08-09T16:14:58.128Z,40.90
2022-08-09T16:17:28.907Z,41.00
2022-08-09T16:20:04.570Z,40.40
2022-08-09T16:22:42.475Z,40.70
2022-08-09T16:25:15.874Z,40.70
2022-08-09T16:27:42.758Z,40.90
2022-08-09T16:30:15.412Z,41.50
2022-08-09T16:33:22.121Z,40.80
2022-08-09T16:35:55.693Z,41.00
2022-08-09T16:38:25.465Z,41.20
2022-08-09T16:40:52.374Z,42.00
2022-08-09T16:43:20.830Z,41.10
2022-08-09T16:45:53.365Z,41.60
2022-08-09T16:48:39.727Z,41.00
2022-08-09T16:51:13.903Z,41.90
2022-08-09T16:54:02.414Z,41.50
2022-08-09T16:56:31.067Z,40.90
2022-08-09T16:58:59.045Z,41.40
2022-08-09T17:01:26.181Z,40.80
2022-08-09T17:03:54.352Z,41.70
2022-08-09T17:06:31.174Z,41.70
2022-08-09T17:09:16.149Z,41.30
2022-08-09T17:11:51.627Z,41.60
2022-08-09T17:14:26.917Z,41.60
2022-08-09T17:17:01.652Z,41.90
2022-08-09T17:19:47.398Z,41.90
2022-08-09T17:22:24.219Z,41.90
2022-08-09T17:25:03.326Z,41.90
2022-08-09T17:27:31.390Z,42.10
2022-08-09T17:29:58.195Z,42.30
2022-08-09T17:32:26.664Z,41.90
2022-08-09T17:35:11.801Z,41.40
2022-08-09T17:38:14.295Z,41.20
2022-08-09T17:40:28.163Z,41.40
2022-08-09T17:42:59.589Z,41.60
2022-08-09T17:45:56.838Z,41.60
2022-08-09T17:48:17.532Z,41.90
2022-08-09T17:50:55.963Z,41.60
2022-08-09T17:53:23.516Z,41.80
2022-08-09T17:55:55.795Z,42.10
2022-08-09T17:58:27.376Z,42.00
2022-08-09T18:00:56.446Z,42.20
2022-08-09T18:03:26.344Z,42.40
2022-08-09T18:05:57.119Z,42.30
2022-08-09T18:08:27.756Z,42.40
2022-08-09T18:11:02.020Z,42.40
2022-08-09T18:13:39.711Z,42.30
2022-08-09T18:16:28.907Z,42.20
2022-08-09T18:18:56.697Z,42.60
2022-08-09T18:21:24.353Z,42.90
2022-08-09T18:24:12.080Z,42.70
2022-08-09T18:26:46.006Z,42.60
2022-08-09T18:30:38.042Z,42.70
2022-08-09T18:32:03.461Z,43.20
2022-08-09T18:34:34.833Z,43.10
2022-08-09T18:37:02.627Z,43.50
2022-08-09T18:39:32.607Z,43.70
2022-08-09T18:42:08.054Z,43.70
2022-08-09T18:44:36.054Z,43.90
2022-08-09T18:47:08.422Z,43.90
2022-08-09T18:49:43.702Z,43.90
2022-08-09T18:52:15.755Z,44.30
2022-08-09T18:54:52.482Z,44.00
2022-08-09T18:57:22.159Z,44.20
2022-08-09T18:59:57.388Z,44.40
2022-08-09T19:02:32.266Z,44.50
2022-08-09T19:05:04.294Z,44.60
2022-08-09T19:08:04.158Z,44.90
2022-08-09T19:10:37.613Z,44.90
2022-08-09T19:13:22.998Z,45.10
2022-08-09T19:15:58.635Z,45.10
2022-08-09T19:18:35.219Z,45.10
2022-08-09T19:21:09.142Z,45.50
2022-08-09T19:24:37.923Z,45.30
2022-08-09T19:26:31.836Z,45.60
2022-08-09T19:29:18.203Z,45.50
2022-08-09T19:31:49.467Z,45.60
2022-08-09T19:34:22.950Z,45.80
2022-08-09T19:36:55.484Z,45.80
2022-08-09T19:39:43.045Z,45.80
2022-08-09T19:42:14.501Z,46.00
2022-08-09T19:44:50.820Z,46.00
2022-08-09T19:47:19.774Z,46.30
2022-08-09T19:50:06.829Z,46.40
2022-08-09T19:52:37.558Z,46.40
2022-08-09T19:55:17.065Z,46.40
2022-08-09T19:57:46.342Z,46.90
2022-08-09T20:00:15.546Z,46.50
2022-08-09T20:04:12.247Z,46.90
2022-08-09T20:05:45.949Z,46.90
2022-08-09T20:08:16.121Z,47.10
2022-08-09T20:10:52.585Z,47.20
2022-08-09T20:13:21.018Z,47.40
2022-08-09T20:16:35.048Z,47.90
2022-08-09T20:18:35.386Z,47.60
2022-08-09T20:21:02.968Z,47.80
2022-08-09T20:23:39.729Z,47.70
2022-08-09T20:26:07.753Z,47.80
2022-08-09T20:28:47.548Z,48.30
2022-08-09T20:31:15.612Z,48.30
2022-08-09T20:33:44.330Z,48.70
2022-08-09T20:36:12.426Z,48.40
2022-08-09T20:41:32.041Z,48.50
2022-08-09T20:44:02.679Z,48.60
2022-08-09T20:46:41.740Z,48.60
2022-08-09T20:49:10.517Z,48.70
2022-08-09T20:51:41.073Z,49.10
2022-08-09T20:54:12.428Z,48.90
2022-08-09T20:56:47.289Z,49.40
2022-08-09T20:59:17.620Z,49.00
2022-08-09T21:01:53.688Z,49.20
2022-08-09T21:05:54.349Z,49.10
2022-08-09T21:07:13.073Z,49.30
2022-08-09T21:09:56.351Z,49.40
2022-08-09T21:12:32.274Z,49.20
2022-08-09T21:15:16.985Z,49.50
2022-08-09T21:18:23.636Z,49.70
2022-08-09T21:20:32.420Z,49.90
2022-08-09T21:23:00.590Z,50.00
2022-08-09T21:25:56.327Z,50.30
2022-08-09T21:28:36.122Z,50.50
2022-08-09T21:31:16.460Z,51.00
2022-08-09T21:33:49.414Z,50.60
2022-08-09T21:36:18.101Z,51.50
2022-08-09T21:38:45.728Z,50.80
2022-08-09T21:41:25.496Z,50.90
2022-08-09T21:44:10.626Z,50.80
2022-08-09T21:46:37.372Z,51.00
2022-08-09T21:49:04.187Z,51.30
2022-08-09T21:51:36.102Z,51.50
2022-08-09T21:54:10.601Z,51.50
2022-08-09T21:56:54.001Z,51.70
2022-08-09T21:59:23.345Z,51.90
2022-08-09T22:02:00.127Z,51.70
2022-08-09T22:04:55.123Z,51.80
2022-08-09T22:07:35.024Z,51.90
2022-08-09T22:10:04.639Z,52.10
2022-08-09T22:12:32.041Z,52.30
2022-08-09T22:14:59.078Z,52.20
2022-08-09T22:17:26.190Z,52.00
2022-08-09T22:19:58.909Z,52.30
2022-08-09T22:22:27.686Z,52.80
2022-08-09T22:26:06.493Z,52.70
2022-08-09T22:27:42.150Z,52.90
2022-08-09T22:30:09.726Z,53.10
2022-08-09T22:32:37.842Z,53.70
2022-08-09T22:35:59.890Z,53.30
2022-08-09T22:38:07.316Z,53.20
2022-08-09T22:40:35.268Z,53.40
2022-08-09T22:43:16.113Z,53.00
2022-08-09T22:48:15.881Z,54.80
2022-08-09T22:48:34.971Z,53.90
2022-08-09T22:51:10.341Z,53.80
2022-08-09T22:53:58.513Z,53.70
2022-08-09T22:56:31.354Z,54.00
2022-08-09T22:59:01.289Z,54.50
2022-08-09T23:01:33.169Z,54.70
2022-08-09T23:04:04.375Z,54.70
2022-08-09T23:06:51.379Z,55.10
2022-08-09T23:09:18.725Z,54.90
2022-08-09T23:11:45.489Z,55.50
2022-08-09T23:14:17.255Z,55.50
2022-08-09T23:16:44.631Z,55.40
2022-08-09T23:19:11.463Z,55.30
2022-08-09T23:21:38.325Z,56.10
2022-08-09T23:24:07.269Z,55.90
2022-08-09T23:26:38.529Z,55.50
2022-08-09T23:29:06.988Z,56.60
2022-08-09T23:31:34.024Z,55.50
2022-08-09T23:34:01.185Z,54.80
2022-08-09T23:36:30.595Z,55.00
2022-08-09T23:38:57.340Z,55.00
2022-08-09T23:41:28.773Z,54.70
2022-08-09T23:44:00.336Z,54.80
2022-08-09T23:46:28.603Z,55.30
2022-08-09T23:48:55.877Z,55.00
2022-08-09T23:51:22.746Z,55.70
2022-08-09T23:53:52.338Z,56.00
2022-08-09T23:56:39.585Z,56.20
2022-08-09T23:59:06.563Z,56.20
